createdAt,value
2023-03-15T00:01:32.362Z,9.18
2023-03-15T00:04:01.443Z,9.50
2023-03-15T00:06:33.920Z,9.51
2023-03-15T00:09:03.217Z,9.91
2023-03-15T00:11:32.758Z,9.68
2023-03-15T00:14:03.538Z,9.71
2023-03-15T00:16:32.931Z,9.72
2023-03-15T00:19:02.082Z,9.81
2023-03-15T00:21:32.326Z,9.51
2023-03-15T00:24:01.531Z,9.89
2023-03-15T00:26:30.525Z,10.19
2023-03-15T00:28:59.403Z,9.49
2023-03-15T00:31:28.135Z,9.37
2023-03-15T00:33:57.092Z,9.78
2023-03-15T00:36:27.148Z,8.33
2023-03-15T00:38:58.343Z,8.89
2023-03-15T00:41:27.411Z,7.57
2023-03-15T00:43:55.952Z,6.90
2023-03-15T00:46:24.900Z,6.27
2023-03-15T00:48:53.849Z,6.67
2023-03-15T00:51:24.195Z,6.03
2023-03-15T00:53:55.077Z,5.75
2023-03-15T00:56:27.991Z,5.11
2023-03-15T00:58:56.397Z,4.23
2023-03-15T01:01:27.489Z,4.06
2023-03-15T01:03:56.847Z,4.29
2023-03-15T01:06:27.336Z,4.14
2023-03-15T01:08:57.356Z,4.07
2023-03-15T01:11:29.203Z,3.92
2023-03-15T01:14:00.450Z,4.04
2023-03-15T01:16:29.874Z,3.70
2023-03-15T01:18:58.822Z,3.42
2023-03-15T01:21:27.813Z,2.80
2023-03-15T01:23:56.733Z,3.37
2023-03-15T01:26:25.641Z,3.13
2023-03-15T01:28:56.533Z,3.10
2023-03-15T01:31:27.530Z,3.23
2023-03-15T01:33:56.739Z,3.50
2023-03-15T01:36:26.253Z,3.01
2023-03-15T01:38:55.742Z,3.32
2023-03-15T01:41:39.873Z,3.45
2023-03-15T01:44:14.341Z,3.92
2023-03-15T01:46:43.353Z,3.73
2023-03-15T01:49:19.944Z,4.08
2023-03-15T01:51:51.805Z,3.98
2023-03-15T01:54:24.021Z,3.33
2023-03-15T01:56:56.461Z,2.89
2023-03-15T01:59:29.050Z,3.66
2023-03-15T02:01:57.709Z,3.08
2023-03-15T02:04:31.504Z,3.48
2023-03-15T02:07:01.311Z,3.52
2023-03-15T02:09:38.325Z,3.03
2023-03-15T02:12:07.387Z,3.58
2023-03-15T02:14:38.036Z,3.00
2023-03-15T02:17:08.760Z,2.82
2023-03-15T02:19:50.352Z,2.75
2023-03-15T02:22:29.503Z,3.05
2023-03-15T02:25:02.199Z,3.31
2023-03-15T02:27:34.617Z,3.60
2023-03-15T02:30:05.965Z,3.53
2023-03-15T02:32:35.058Z,3.55
2023-03-15T02:35:03.947Z,3.49
2023-03-15T02:37:32.558Z,3.54
2023-03-15T02:40:01.366Z,3.05
2023-03-15T02:42:31.599Z,3.54
2023-03-15T02:45:01.691Z,3.59
2023-03-15T02:47:34.162Z,3.69
2023-03-15T02:50:03.119Z,3.63
2023-03-15T02:52:31.972Z,3.67
2023-03-15T02:55:02.276Z,3.77
2023-03-15T02:57:31.577Z,3.19
2023-03-15T03:00:07.254Z,3.32
2023-03-15T03:02:36.181Z,3.27
2023-03-15T03:05:05.513Z,3.41
2023-03-15T03:07:34.118Z,3.53
2023-03-15T03:10:07.613Z,3.90
2023-03-15T03:12:46.758Z,3.07
2023-03-15T03:15:17.231Z,3.22
2023-03-15T03:17:45.855Z,3.51
2023-03-15T03:20:15.909Z,3.64
2023-03-15T03:22:47.764Z,3.44
2023-03-15T03:25:19.205Z,3.33
2023-03-15T03:27:49.553Z,2.81
2023-03-15T03:30:20.026Z,3.08
2023-03-15T03:32:53.264Z,3.61
2023-03-15T03:35:23.283Z,2.82
2023-03-15T03:37:53.707Z,2.72
2023-03-15T03:40:28.296Z,3.43
2023-03-15T03:42:57.404Z,3.36
2023-03-15T03:45:27.872Z,3.60
2023-03-15T03:47:59.693Z,3.21
2023-03-15T03:50:28.928Z,2.90
2023-03-15T03:52:57.807Z,3.39
2023-03-15T03:55:34.122Z,3.14
2023-03-15T03:58:03.063Z,3.13
2023-03-15T04:00:48.017Z,2.98
2023-03-15T04:03:17.108Z,3.30
2023-03-15T04:05:50.102Z,3.26
2023-03-15T04:08:22.312Z,3.25
2023-03-15T04:10:54.335Z,3.51
2023-03-15T04:13:25.533Z,3.51
2023-03-15T04:15:58.047Z,3.76
2023-03-15T04:18:31.191Z,3.39
2023-03-15T04:21:01.043Z,3.72
2023-03-15T04:23:30.321Z,3.14
2023-03-15T04:26:34.750Z,2.85
2023-03-15T04:29:30.203Z,3.24
2023-03-15T04:32:18.982Z,3.11
2023-03-15T04:34:57.596Z,3.03
2023-03-15T04:37:59.311Z,2.76
2023-03-15T04:40:49.663Z,2.81
2023-03-15T04:43:28.288Z,3.39
2023-03-15T04:46:10.083Z,2.95
2023-03-15T04:48:54.638Z,3.30
2023-03-15T04:51:34.646Z,2.89
2023-03-15T04:54:41.910Z,2.91
2023-03-15T04:57:29.352Z,3.54
2023-03-15T05:00:21.872Z,3.29
2023-03-15T05:03:09.632Z,3.27
2023-03-15T05:05:58.958Z,3.54
2023-03-15T05:08:45.460Z,3.62
2023-03-15T05:11:26.504Z,3.62
2023-03-15T05:14:27.478Z,2.85
2023-03-15T05:17:11.428Z,3.07
2023-03-15T05:20:16.666Z,2.98
2023-03-15T05:22:54.482Z,3.44
2023-03-15T05:25:39.843Z,3.55
2023-03-15T05:28:29.820Z,3.33
2023-03-15T05:31:17.221Z,3.03
2023-03-15T05:34:06.668Z,3.62
2023-03-15T05:36:38.662Z,3.74
2023-03-15T05:39:38.548Z,3.47
2023-03-15T05:42:13.531Z,3.58
2023-03-15T05:45:01.029Z,3.93
2023-03-15T05:47:30.268Z,3.30
2023-03-15T05:50:18.626Z,3.08
2023-03-15T05:53:06.093Z,3.51
2023-03-15T05:55:49.371Z,3.21
2023-03-15T05:58:32.092Z,3.22
2023-03-15T06:01:04.267Z,3.66
2023-03-15T06:03:51.700Z,3.11
2023-03-15T06:06:25.963Z,2.38
2023-03-15T06:08:55.202Z,2.54
2023-03-15T06:11:25.778Z,2.36
2023-03-15T06:13:54.279Z,2.64
2023-03-15T06:16:36.954Z,2.90
2023-03-15T06:19:06.627Z,2.45
2023-03-15T06:21:35.510Z,2.56
2023-03-15T06:24:10.573Z,2.58
2023-03-15T06:26:41.337Z,2.85
2023-03-15T06:29:10.990Z,3.06
2023-03-15T06:31:39.555Z,2.90
2023-03-15T06:34:12.038Z,2.93
2023-03-15T06:36:42.473Z,3.10
2023-03-15T06:39:12.205Z,3.83
2023-03-15T06:41:43.056Z,4.14
2023-03-15T06:44:17.857Z,4.30
2023-03-15T06:46:47.631Z,4.04
2023-03-15T06:49:16.568Z,3.70
2023-03-15T06:51:46.150Z,3.50
2023-03-15T06:54:15.091Z,3.82
2023-03-15T06:56:45.698Z,3.46
2023-03-15T06:59:14.732Z,3.92
2023-03-15T07:01:43.468Z,4.14
2023-03-15T07:04:12.561Z,3.80
2023-03-15T07:06:41.688Z,3.02
2023-03-15T07:09:10.803Z,2.98
2023-03-15T07:11:39.761Z,2.85
2023-03-15T07:14:10.108Z,3.15
2023-03-15T07:16:38.775Z,3.19
2023-03-15T07:19:07.754Z,3.14
2023-03-15T07:21:36.772Z,2.94
2023-03-15T07:24:06.197Z,3.34
2023-03-15T07:26:35.204Z,3.15
2023-03-15T07:29:04.098Z,3.24
2023-03-15T07:31:34.022Z,3.27
2023-03-15T07:34:02.764Z,3.66
2023-03-15T07:36:32.609Z,3.84
2023-03-15T07:39:01.820Z,3.77
2023-03-15T07:41:31.392Z,3.88
2023-03-15T07:44:08.874Z,4.55
2023-03-15T07:46:39.094Z,5.00
2023-03-15T07:49:08.191Z,4.61
2023-03-15T07:51:37.212Z,5.25
2023-03-15T07:54:06.234Z,5.27
2023-03-15T07:56:35.148Z,4.76
2023-03-15T07:59:04.052Z,4.65
2023-03-15T08:01:32.594Z,4.47
2023-03-15T08:04:03.420Z,4.73
2023-03-15T08:06:32.461Z,4.92
2023-03-15T08:09:04.551Z,5.53
2023-03-15T08:11:33.829Z,5.59
2023-03-15T08:14:02.745Z,4.62
2023-03-15T08:16:31.396Z,4.59
2023-03-15T08:19:00.494Z,4.18
2023-03-15T08:21:33.840Z,5.08
2023-03-15T08:24:03.380Z,5.93
2023-03-15T08:26:32.541Z,5.81
2023-03-15T08:29:01.561Z,4.83
2023-03-15T08:31:30.198Z,5.45
2023-03-15T08:33:59.180Z,6.37
2023-03-15T08:36:28.367Z,5.76
2023-03-15T08:38:58.877Z,5.71
2023-03-15T08:41:27.825Z,5.49
2023-03-15T08:43:56.718Z,6.22
2023-03-15T08:46:27.158Z,6.71
2023-03-15T08:48:56.211Z,6.81
2023-03-15T08:51:25.685Z,6.32
2023-03-15T08:53:55.210Z,5.67
2023-03-15T08:56:25.608Z,5.35
2023-03-15T08:58:56.828Z,5.81
2023-03-15T09:01:25.995Z,4.62
2023-03-15T09:03:54.944Z,3.87
2023-03-15T09:06:24.053Z,4.30
2023-03-15T09:08:53.950Z,4.70
2023-03-15T09:11:23.345Z,5.28
2023-03-15T09:14:08.429Z,5.34
2023-03-15T09:16:37.463Z,5.60
2023-03-15T09:19:06.485Z,5.41
2023-03-15T09:21:35.714Z,4.86
2023-03-15T09:24:05.070Z,4.96
2023-03-15T09:26:34.153Z,4.88
2023-03-15T09:29:03.182Z,5.27
2023-03-15T09:31:33.303Z,6.58
2023-03-15T09:34:02.238Z,6.29
2023-03-15T09:36:31.511Z,7.43
2023-03-15T09:39:01.719Z,6.57
2023-03-15T09:41:42.888Z,8.01
2023-03-15T09:44:18.761Z,7.60
2023-03-15T09:46:58.950Z,8.06
2023-03-15T09:49:31.389Z,9.65
2023-03-15T09:52:05.383Z,8.22
2023-03-15T09:54:40.388Z,8.94
2023-03-15T09:57:15.993Z,9.90
2023-03-15T09:59:48.371Z,10.80
2023-03-15T10:02:23.680Z,11.33
2023-03-15T10:04:56.044Z,12.29
2023-03-15T10:07:25.022Z,11.90
2023-03-15T10:09:54.535Z,10.76
2023-03-15T10:12:25.615Z,12.75
2023-03-15T10:15:02.917Z,13.65
2023-03-15T10:17:39.350Z,15.96
2023-03-15T10:20:13.138Z,17.01
2023-03-15T10:22:47.562Z,19.51
2023-03-15T10:25:18.914Z,16.30
2023-03-15T10:27:51.005Z,16.04
2023-03-15T10:30:22.254Z,13.87
2023-03-15T10:32:57.484Z,10.96
2023-03-15T10:35:26.866Z,8.49
2023-03-15T10:37:55.645Z,8.93
2023-03-15T10:40:40.899Z,8.40
2023-03-15T10:43:20.715Z,8.11
2023-03-15T10:46:00.473Z,8.04
2023-03-15T10:48:32.847Z,8.27
2023-03-15T10:51:06.119Z,8.52
2023-03-15T10:53:35.309Z,8.40
2023-03-15T10:56:07.237Z,7.47
2023-03-15T10:58:42.798Z,6.90
2023-03-15T11:01:15.990Z,7.42
2023-03-15T11:03:46.942Z,6.45
2023-03-15T11:06:25.762Z,7.04
2023-03-15T11:08:54.616Z,7.98
2023-03-15T11:11:23.510Z,8.27
2023-03-15T11:14:01.727Z,7.95
2023-03-15T11:16:36.222Z,6.44
2023-03-15T11:19:13.932Z,7.20
2023-03-15T11:21:44.122Z,8.90
2023-03-15T11:24:22.778Z,9.63
2023-03-15T11:26:53.928Z,11.17
2023-03-15T11:29:25.540Z,10.70
2023-03-15T11:31:55.091Z,9.71
2023-03-15T11:34:40.336Z,8.20
2023-03-15T11:37:17.438Z,8.09
2023-03-15T11:39:51.730Z,9.46
2023-03-15T11:42:28.452Z,10.81
2023-03-15T11:45:00.361Z,10.73
2023-03-15T11:47:37.575Z,8.99
2023-03-15T11:50:09.451Z,7.58
2023-03-15T11:52:37.980Z,8.20
2023-03-15T11:55:08.173Z,8.78
2023-03-15T11:57:40.910Z,9.15
2023-03-15T12:00:28.286Z,12.35
2023-03-15T12:03:00.061Z,12.32
2023-03-15T12:05:47.354Z,9.69
2023-03-15T12:08:25.302Z,9.69
2023-03-15T12:10:54.284Z,10.96
2023-03-15T12:13:28.020Z,10.43
2023-03-15T12:15:57.094Z,8.75
2023-03-15T12:18:32.851Z,8.06
2023-03-15T12:21:18.343Z,7.15
2023-03-15T12:23:59.113Z,7.57
2023-03-15T12:26:33.843Z,7.82
2023-03-15T12:29:10.038Z,8.59
2023-03-15T12:32:01.554Z,7.81
2023-03-15T12:34:39.528Z,8.36
2023-03-15T12:37:14.244Z,8.30
2023-03-15T12:39:46.264Z,7.28
2023-03-15T12:43:10.693Z,8.44
2023-03-15T12:45:43.678Z,8.79
2023-03-15T12:48:23.465Z,8.09
2023-03-15T12:50:56.332Z,7.23
2023-03-15T12:53:31.151Z,7.19
2023-03-15T12:56:08.576Z,7.05
2023-03-15T12:58:38.748Z,6.24
2023-03-15T13:01:09.114Z,6.85
2023-03-15T13:03:38.347Z,5.45
2023-03-15T13:06:13.322Z,5.89
2023-03-15T13:08:47.878Z,6.65
2023-03-15T13:11:21.702Z,6.59
2023-03-15T13:14:07.365Z,7.00
2023-03-15T13:16:39.303Z,6.89
2023-03-15T13:19:18.873Z,6.48
2023-03-15T13:22:05.108Z,6.77
2023-03-15T13:24:43.469Z,7.20
2023-03-15T13:27:17.972Z,7.37
2023-03-15T13:29:47.121Z,7.28
2023-03-15T13:32:17.822Z,7.22
2023-03-15T13:34:46.693Z,7.54
2023-03-15T13:37:17.571Z,7.51
2023-03-15T13:40:02.690Z,6.86
2023-03-15T13:42:31.814Z,6.63
2023-03-15T13:45:14.306Z,6.87
2023-03-15T13:47:44.197Z,6.32
2023-03-15T13:50:16.312Z,6.46
2023-03-15T13:52:45.873Z,6.71
2023-03-15T13:55:18.163Z,6.66
2023-03-15T13:57:47.210Z,6.63
2023-03-15T14:00:19.487Z,6.98
2023-03-15T14:02:50.231Z,7.46
2023-03-15T14:05:27.621Z,7.09
2023-03-15T14:08:02.834Z,7.12
2023-03-15T14:10:35.568Z,6.91
2023-03-15T14:13:22.500Z,7.28
2023-03-15T14:15:52.672Z,7.14
2023-03-15T14:18:25.295Z,7.09
2023-03-15T14:20:58.499Z,6.90
2023-03-15T14:23:28.156Z,7.14
2023-03-15T14:26:04.971Z,6.32
2023-03-15T14:28:34.801Z,6.35
2023-03-15T14:31:05.294Z,6.13
2023-03-15T14:33:34.983Z,5.93
2023-03-15T14:36:07.231Z,5.63
2023-03-15T14:38:39.272Z,5.80
2023-03-15T14:41:25.413Z,5.66
2023-03-15T14:43:54.278Z,5.23
2023-03-15T14:46:23.218Z,5.78
2023-03-15T14:48:52.550Z,5.99
2023-03-15T14:51:23.229Z,5.87
2023-03-15T14:53:54.769Z,6.34
2023-03-15T14:56:25.429Z,6.31
2023-03-15T14:58:55.342Z,6.96
2023-03-15T15:01:26.885Z,6.03
2023-03-15T15:03:59.898Z,5.54
2023-03-15T15:06:29.953Z,5.73
2023-03-15T15:09:00.483Z,5.68
2023-03-15T15:11:30.931Z,5.40
2023-03-15T15:14:00.108Z,5.66
2023-03-15T15:16:28.701Z,5.41
2023-03-15T15:18:57.785Z,5.43
2023-03-15T15:21:28.978Z,5.78
2023-03-15T15:23:59.337Z,5.52
2023-03-15T15:26:34.594Z,5.23
2023-03-15T15:29:03.176Z,5.18
2023-03-15T15:31:34.542Z,4.94
2023-03-15T15:34:03.958Z,4.86
2023-03-15T15:36:34.953Z,5.13
2023-03-15T15:39:07.514Z,5.26
2023-03-15T15:41:38.089Z,5.38
2023-03-15T15:44:13.131Z,5.49
2023-03-15T15:46:41.715Z,5.67
2023-03-15T15:49:10.666Z,5.41
2023-03-15T15:51:42.060Z,5.07
2023-03-15T15:54:15.620Z,5.38
2023-03-15T15:56:48.934Z,5.18
2023-03-15T15:59:19.505Z,5.42
2023-03-15T16:02:00.177Z,5.64
2023-03-15T16:04:30.229Z,5.60
2023-03-15T16:07:01.995Z,5.63
2023-03-15T16:09:33.746Z,5.48
2023-03-15T16:12:04.712Z,5.28
2023-03-15T16:14:33.688Z,5.11
2023-03-15T16:17:02.878Z,4.85
2023-03-15T16:19:31.610Z,5.15
2023-03-15T16:22:01.047Z,5.05
2023-03-15T16:24:34.781Z,5.00
2023-03-15T16:27:08.154Z,4.67
2023-03-15T16:29:39.066Z,4.77
2023-03-15T16:32:45.231Z,4.72
2023-03-15T16:35:54.535Z,4.74
2023-03-15T16:39:05.142Z,4.61
2023-03-15T16:42:18.089Z,4.47
2023-03-15T16:45:27.947Z,4.15
2023-03-15T16:48:37.225Z,4.17
2023-03-15T16:51:49.365Z,4.11
2023-03-15T16:54:58.701Z,4.05
2023-03-15T16:58:17.236Z,3.91
2023-03-15T17:01:26.879Z,3.85
2023-03-15T17:04:36.292Z,3.90
2023-03-15T17:07:46.298Z,3.88
2023-03-15T17:10:55.896Z,3.70
2023-03-15T17:14:07.615Z,3.60
2023-03-15T17:17:16.913Z,3.52
2023-03-15T17:20:28.581Z,3.63
2023-03-15T17:23:38.008Z,3.60
2023-03-15T17:26:47.691Z,3.33
2023-03-15T17:29:58.520Z,3.45
2023-03-15T17:33:08.532Z,3.48
2023-03-15T17:36:21.298Z,3.44
2023-03-15T17:39:30.547Z,3.16
2023-03-15T17:42:39.779Z,3.19
2023-03-15T17:45:50.282Z,3.00
2023-03-15T17:49:00.155Z,3.01
2023-03-15T17:52:14.361Z,3.08
2023-03-15T17:55:26.098Z,2.80
2023-03-15T17:58:35.900Z,2.68
2023-03-15T18:01:48.838Z,2.54
2023-03-15T18:04:58.462Z,2.35
2023-03-15T18:08:08.315Z,2.53
2023-03-15T18:11:22.856Z,2.63
2023-03-15T18:14:37.287Z,2.55
2023-03-15T18:17:48.825Z,2.49
2023-03-15T18:20:58.260Z,2.38
2023-03-15T18:24:11.058Z,2.30
2023-03-15T18:27:21.286Z,2.35
2023-03-15T18:30:32.224Z,2.32
2023-03-15T18:33:42.853Z,2.31
2023-03-15T18:36:52.086Z,2.20
2023-03-15T18:40:01.342Z,2.33
2023-03-15T18:43:13.897Z,2.40
2023-03-15T18:46:25.213Z,2.30
2023-03-15T18:49:35.865Z,2.39
2023-03-15T18:52:45.660Z,2.51
2023-03-15T18:55:54.821Z,2.28
2023-03-15T18:59:05.145Z,2.27
2023-03-15T19:02:14.390Z,2.24
2023-03-15T19:05:25.682Z,2.37
2023-03-15T19:08:35.038Z,2.25
2023-03-15T19:11:44.246Z,2.24
2023-03-15T19:14:53.394Z,2.18
2023-03-15T19:18:02.636Z,2.14
2023-03-15T19:21:13.378Z,2.20
2023-03-15T19:24:22.590Z,2.17
2023-03-15T19:27:31.830Z,2.04
2023-03-15T19:30:41.129Z,1.85
2023-03-15T19:33:50.276Z,1.84
2023-03-15T19:37:01.448Z,2.10
2023-03-15T19:40:12.129Z,2.04
2023-03-15T19:43:21.370Z,1.86
2023-03-15T19:46:30.685Z,2.10
2023-03-15T19:49:39.876Z,2.06
2023-03-15T19:52:50.540Z,2.02
2023-03-15T19:55:59.891Z,2.06
2023-03-15T19:59:09.252Z,2.11
2023-03-15T20:02:21.111Z,1.88
2023-03-15T20:05:30.341Z,1.85
2023-03-15T20:08:41.177Z,2.05
2023-03-15T20:11:50.457Z,1.98
2023-03-15T20:14:59.712Z,1.88
2023-03-15T20:18:13.081Z,1.80
2023-03-15T20:21:22.798Z,1.94
2023-03-15T20:24:33.514Z,1.66
2023-03-15T20:27:43.065Z,1.81
2023-03-15T20:30:52.341Z,1.59
2023-03-15T20:34:01.503Z,1.54
2023-03-15T20:37:13.676Z,1.75
2023-03-15T20:40:24.581Z,1.94
2023-03-15T20:43:34.403Z,1.98
2023-03-15T20:46:43.957Z,1.92
2023-03-15T20:49:54.353Z,1.87
2023-03-15T20:53:05.218Z,1.78
2023-03-15T20:56:16.521Z,1.60
2023-03-15T20:59:25.662Z,1.88
2023-03-15T21:02:34.948Z,1.73
2023-03-15T21:05:45.553Z,1.96
2023-03-15T21:08:54.737Z,1.95
2023-03-15T21:12:05.716Z,2.00
2023-03-15T21:15:17.877Z,1.91
2023-03-15T21:18:27.212Z,1.68
2023-03-15T21:21:36.424Z,1.67
2023-03-15T21:24:55.158Z,1.89
2023-03-15T21:28:07.171Z,1.56
2023-03-15T21:31:16.731Z,1.73
2023-03-15T21:34:25.933Z,1.44
2023-03-15T21:37:35.110Z,1.73
2023-03-15T21:40:45.033Z,1.36
2023-03-15T21:43:55.960Z,1.38
2023-03-15T21:47:06.313Z,1.31
2023-03-15T21:50:15.799Z,1.41
2023-03-15T21:53:25.015Z,1.45
2023-03-15T21:56:34.315Z,1.49
2023-03-15T21:59:44.827Z,1.41
2023-03-15T22:02:55.797Z,1.27
2023-03-15T22:06:05.478Z,1.28
2023-03-15T22:09:14.662Z,1.45
2023-03-15T22:12:25.364Z,1.40
2023-03-15T22:15:35.906Z,1.08
2023-03-15T22:18:45.186Z,1.35
2023-03-15T22:21:54.396Z,0.86
2023-03-15T22:25:03.555Z,1.26
2023-03-15T22:28:12.972Z,1.05
2023-03-15T22:31:23.642Z,0.67
2023-03-15T22:34:34.436Z,1.22
2023-03-15T22:37:43.633Z,0.86
2023-03-15T22:41:01.346Z,1.31
2023-03-15T22:44:10.545Z,1.17
2023-03-15T22:47:21.154Z,1.34
2023-03-15T22:50:30.250Z,1.46
2023-03-15T22:53:39.366Z,1.40
2023-03-15T22:56:48.406Z,1.06
2023-03-15T22:59:58.751Z,1.50
2023-03-15T23:03:08.988Z,1.55
2023-03-15T23:06:18.104Z,1.10
2023-03-15T23:09:27.330Z,0.79
2023-03-15T23:12:36.932Z,0.75
2023-03-15T23:15:46.066Z,0.69
2023-03-15T23:18:56.651Z,0.61
2023-03-15T23:22:06.437Z,0.72
2023-03-15T23:25:18.167Z,0.57
2023-03-15T23:28:27.398Z,0.47
2023-03-15T23:31:36.608Z,0.31
2023-03-15T23:34:47.150Z,0.39
2023-03-15T23:37:56.670Z,0.48
2023-03-15T23:41:06.229Z,0.31
2023-03-15T23:44:15.357Z,0.17
2023-03-15T23:47:25.330Z,0.34
2023-03-15T23:50:35.870Z,0.41
2023-03-15T23:53:44.958Z,0.57
2023-03-15T23:56:54.030Z,0.07
